createdAt,value
2022-09-04T00:00:47.560Z,10.20
2022-09-04T00:03:23.591Z,10.20
2022-09-04T00:05:53.813Z,10.30
2022-09-04T00:08:28.167Z,10.30
2022-09-04T00:10:58.296Z,10.20
2022-09-04T00:13:29.307Z,10.20
2022-09-04T00:16:06.823Z,10.10
2022-09-04T00:18:38.882Z,10.20
2022-09-04T00:21:11.739Z,10.20
2022-09-04T00:23:43.447Z,10.20
2022-09-04T00:26:16.511Z,10.20
2022-09-04T00:28:50.977Z,10.20
2022-09-04T00:31:26.430Z,10.30
2022-09-04T00:34:00.694Z,10.30
2022-09-04T00:36:29.902Z,10.30
2022-09-04T00:39:01.462Z,10.20
2022-09-04T00:41:31.280Z,10.20
2022-09-04T00:44:13.795Z,10.10
2022-09-04T00:46:52.140Z,10.00
2022-09-04T00:49:36.698Z,10.00
2022-09-04T00:52:11.201Z,9.90
2022-09-04T00:54:43.371Z,9.90
2022-09-04T00:57:34.192Z,9.90
2022-09-04T01:00:08.766Z,9.90
2022-09-04T01:02:52.138Z,9.80
2022-09-04T01:05:28.614Z,9.90
2022-09-04T01:08:02.070Z,9.80
2022-09-04T01:10:34.847Z,9.70
2022-09-04T01:13:08.555Z,9.70
2022-09-04T01:15:41.533Z,9.60
2022-09-04T01:18:13.009Z,9.80
2022-09-04T01:20:56.292Z,9.80
2022-09-04T01:23:36.538Z,9.90
2022-09-04T01:26:11.115Z,9.80
2022-09-04T01:28:45.806Z,9.80
2022-09-04T01:31:21.693Z,9.70
2022-09-04T01:33:55.249Z,9.60
2022-09-04T01:36:33.849Z,9.60
2022-09-04T01:39:03.289Z,9.50
2022-09-04T01:41:38.491Z,9.40
2022-09-04T01:44:08.511Z,9.30
2022-09-04T01:46:58.180Z,9.30
2022-09-04T01:49:32.576Z,9.20
2022-09-04T01:52:15.835Z,9.20
2022-09-04T01:54:48.618Z,9.10
2022-09-04T01:57:24.745Z,9.10
2022-09-04T02:00:02.549Z,9.10
2022-09-04T02:02:35.438Z,9.10
2022-09-04T02:05:10.411Z,9.00
2022-09-04T02:07:42.375Z,9.00
2022-09-04T02:10:14.893Z,8.90
2022-09-04T02:12:51.372Z,8.90
2022-09-04T02:15:24.010Z,8.90
2022-09-04T02:17:59.434Z,8.80
2022-09-04T02:20:29.372Z,8.80
2022-09-04T02:23:05.643Z,8.80
2022-09-04T02:25:37.679Z,8.80
2022-09-04T02:28:15.748Z,8.70
2022-09-04T02:30:47.031Z,8.70
2022-09-04T02:33:27.605Z,8.60
2022-09-04T02:36:02.663Z,8.50
2022-09-04T02:38:33.992Z,8.50
2022-09-04T02:41:04.934Z,8.50
2022-09-04T02:43:46.001Z,8.50
2022-09-04T02:46:17.788Z,8.60
2022-09-04T02:48:54.900Z,8.50
2022-09-04T02:51:30.171Z,8.50
2022-09-04T02:54:03.308Z,8.50
2022-09-04T02:56:39.616Z,8.40
2022-09-04T02:59:17.469Z,8.40
2022-09-04T03:01:52.210Z,8.40
2022-09-04T03:04:24.299Z,8.40
2022-09-04T03:06:55.462Z,8.30
2022-09-04T03:09:26.611Z,8.30
2022-09-04T03:11:59.186Z,8.30
2022-09-04T03:14:34.626Z,8.30
2022-09-04T03:17:07.208Z,8.30
2022-09-04T03:19:38.311Z,8.30
2022-09-04T03:22:09.453Z,8.40
2022-09-04T03:24:41.258Z,8.40
2022-09-04T03:27:12.064Z,8.30
2022-09-04T03:29:48.957Z,8.30
2022-09-04T03:32:19.694Z,8.30
2022-09-04T03:34:51.148Z,8.20
2022-09-04T03:37:43.855Z,8.20
2022-09-04T03:40:19.394Z,8.10
2022-09-04T03:42:56.769Z,8.10
2022-09-04T03:45:31.185Z,8.10
2022-09-04T03:48:08.858Z,8.00
2022-09-04T03:50:45.022Z,8.10
2022-09-04T03:53:19.425Z,8.00
2022-09-04T03:56:04.918Z,8.00
2022-09-04T03:58:39.711Z,8.00
2022-09-04T04:01:24.136Z,8.00
2022-09-04T04:04:01.057Z,8.00
2022-09-04T04:06:36.035Z,8.00
2022-09-04T04:09:21.694Z,8.00
2022-09-04T04:12:01.548Z,8.00
2022-09-04T04:14:46.229Z,7.90
2022-09-04T04:17:21.752Z,7.90
2022-09-04T04:20:05.236Z,8.00
2022-09-04T04:22:47.264Z,8.10
2022-09-04T04:25:20.278Z,8.20
2022-09-04T04:27:53.354Z,8.20
2022-09-04T04:30:22.509Z,8.20
2022-09-04T04:33:17.879Z,8.10
2022-09-04T04:35:54.975Z,8.10
2022-09-04T04:38:33.182Z,8.00
2022-09-04T04:41:09.411Z,8.10
2022-09-04T04:43:45.095Z,8.10
2022-09-04T04:46:17.794Z,8.10
2022-09-04T04:49:01.582Z,8.10
2022-09-04T04:51:41.111Z,8.20
2022-09-04T04:54:22.804Z,8.20
2022-09-04T04:56:53.910Z,8.20
2022-09-04T04:59:24.742Z,8.30
2022-09-04T05:01:58.645Z,8.40
2022-09-04T05:04:31.957Z,8.50
2022-09-04T05:07:04.680Z,8.60
2022-09-04T05:09:38.286Z,8.70
2022-09-04T05:12:10.763Z,8.80
2022-09-04T05:14:53.655Z,8.90
2022-09-04T05:17:28.940Z,9.10
2022-09-04T05:20:04.923Z,9.30
2022-09-04T05:22:39.578Z,9.40
2022-09-04T05:25:11.118Z,9.60
2022-09-04T05:27:45.083Z,9.80
2022-09-04T05:30:16.510Z,10.00
2022-09-04T05:32:51.147Z,10.10
2022-09-04T05:35:22.217Z,10.20
2022-09-04T05:37:57.698Z,10.30
2022-09-04T05:40:31.123Z,10.40
2022-09-04T05:43:11.607Z,10.40
2022-09-04T05:45:47.747Z,10.40
2022-09-04T05:48:21.737Z,10.60
2022-09-04T05:51:05.912Z,10.60
2022-09-04T05:53:49.095Z,10.70
2022-09-04T05:56:37.482Z,10.90
2022-09-04T05:59:12.940Z,11.10
2022-09-04T06:01:55.857Z,11.40
2022-09-04T06:04:37.449Z,11.70
2022-09-04T06:07:10.194Z,11.80
2022-09-04T06:09:45.306Z,11.90
2022-09-04T06:12:28.465Z,12.00
2022-09-04T06:15:14.554Z,12.10
2022-09-04T06:17:56.051Z,12.30
2022-09-04T06:20:35.322Z,12.90
2022-09-04T06:23:10.190Z,13.70
2022-09-04T06:25:46.085Z,14.40
2022-09-04T06:28:25.827Z,15.60
2022-09-04T06:30:57.742Z,16.80
2022-09-04T06:33:31.357Z,17.70
2022-09-04T06:36:16.648Z,18.10
2022-09-04T06:38:53.734Z,18.80
2022-09-04T06:41:32.309Z,19.40
2022-09-04T06:44:08.911Z,20.10
2022-09-04T06:46:41.692Z,20.50
2022-09-04T06:49:13.542Z,21.00
2022-09-04T06:51:48.828Z,21.30
2022-09-04T06:54:28.158Z,21.60
2022-09-04T06:57:07.991Z,21.60
2022-09-04T06:59:43.794Z,21.80
2022-09-04T07:02:17.945Z,22.00
2022-09-04T07:04:49.491Z,22.30
2022-09-04T07:07:22.118Z,22.70
2022-09-04T07:09:53.595Z,22.70
2022-09-04T07:12:28.140Z,22.50
2022-09-04T07:15:14.184Z,22.60
2022-09-04T07:17:46.576Z,22.20
2022-09-04T07:20:18.499Z,22.50
2022-09-04T07:22:55.255Z,23.00
2022-09-04T07:25:26.293Z,23.20
2022-09-04T07:28:00.970Z,23.20
2022-09-04T07:30:33.880Z,23.50
2022-09-04T07:33:04.203Z,23.40
2022-09-04T07:35:35.691Z,23.90
2022-09-04T07:38:15.847Z,24.20
2022-09-04T07:40:47.987Z,24.60
2022-09-04T07:43:21.539Z,24.70
2022-09-04T07:46:00.682Z,25.10
2022-09-04T07:48:35.476Z,25.00
2022-09-04T07:51:10.308Z,25.20
2022-09-04T07:54:05.060Z,25.10
2022-09-04T07:56:48.327Z,25.10
2022-09-04T07:59:39.670Z,25.40
2022-09-04T08:02:27.698Z,25.10
2022-09-04T08:05:18.763Z,25.00
2022-09-04T08:08:10.612Z,24.90
2022-09-04T08:10:48.896Z,25.10
2022-09-04T08:13:33.614Z,25.40
2022-09-04T08:16:07.876Z,25.30
2022-09-04T08:19:16.498Z,24.70
2022-09-04T08:21:45.911Z,24.80
2022-09-04T08:24:53.657Z,25.20
2022-09-04T08:27:47.688Z,25.50
2022-09-04T08:30:20.627Z,25.30
2022-09-04T08:33:23.868Z,25.70
2022-09-04T08:36:01.348Z,26.20
2022-09-04T08:38:55.563Z,26.90
2022-09-04T08:42:06.919Z,27.20
2022-09-04T08:45:22.243Z,27.70
2022-09-04T08:48:21.135Z,26.70
2022-09-04T08:51:34.674Z,25.20
2022-09-04T08:55:51.701Z,23.80
2022-09-04T08:58:48.267Z,23.50
2022-09-04T09:01:45.666Z,23.40
2022-09-04T09:04:49.474Z,24.70
2022-09-04T09:07:49.396Z,25.80
2022-09-04T09:11:03.351Z,27.10
2022-09-04T09:14:03.018Z,27.60
2022-09-04T09:16:43.947Z,27.30
2022-09-04T09:19:22.887Z,27.10
2022-09-04T09:22:12.717Z,26.70
2022-09-04T09:25:09.644Z,26.60
2022-09-04T09:28:16.130Z,26.60
2022-09-04T09:31:21.788Z,26.70
2022-09-04T09:34:38.055Z,26.90
2022-09-04T09:37:35.057Z,27.40
2022-09-04T09:40:22.249Z,27.30
2022-09-04T09:43:26.544Z,27.40
2022-09-04T09:46:24.715Z,27.70
2022-09-04T09:49:42.561Z,27.40
2022-09-04T09:52:43.101Z,27.20
2022-09-04T09:55:58.574Z,26.60
2022-09-04T09:59:21.970Z,26.30
2022-09-04T10:02:22.327Z,26.10
2022-09-04T10:05:15.501Z,26.40
2022-09-04T10:08:15.160Z,26.90
2022-09-04T10:11:09.072Z,26.80
2022-09-04T10:14:07.454Z,26.80
2022-09-04T10:16:58.143Z,27.10
2022-09-04T10:20:02.021Z,28.20
2022-09-04T10:23:08.820Z,28.70
2022-09-04T10:25:59.101Z,29.10
2022-09-04T10:29:12.023Z,28.70
2022-09-04T10:31:48.859Z,28.60
2022-09-04T10:34:54.523Z,29.00
2022-09-04T10:37:38.727Z,29.30
2022-09-04T10:40:49.274Z,29.00
2022-09-04T10:43:32.195Z,28.90
2022-09-04T10:46:13.813Z,28.00
2022-09-04T10:49:28.197Z,27.70
2022-09-04T10:52:36.956Z,27.20
2022-09-04T10:55:26.685Z,27.60
2022-09-04T10:58:29.352Z,28.00
2022-09-04T11:01:23.093Z,28.20
2022-09-04T11:04:45.815Z,28.50
2022-09-04T11:07:42.021Z,28.30
2022-09-04T11:10:22.437Z,28.00
2022-09-04T11:13:40.187Z,27.70
2022-09-04T11:16:29.324Z,27.80
2022-09-04T11:19:38.930Z,28.20
2022-09-04T11:22:46.977Z,28.50
2022-09-04T11:25:53.228Z,28.80
2022-09-04T11:31:30.090Z,28.60
2022-09-04T11:34:34.235Z,27.40
2022-09-04T11:37:48.252Z,28.30
2022-09-04T11:41:09.785Z,28.70
2022-09-04T11:44:20.336Z,28.50
2022-09-04T11:47:23.452Z,28.30
2022-09-04T11:50:07.055Z,28.60
2022-09-04T11:53:08.148Z,29.00
2022-09-04T11:55:54.429Z,29.30
2022-09-04T11:58:46.108Z,28.90
2022-09-04T12:01:36.194Z,29.20
2022-09-04T12:04:40.434Z,28.70
2022-09-04T12:07:19.211Z,28.50
2022-09-04T12:10:11.541Z,28.70
2022-09-04T12:13:14.755Z,28.30
2022-09-04T12:16:04.999Z,27.30
2022-09-04T12:19:10.306Z,26.90
2022-09-04T12:22:12.732Z,26.90
2022-09-04T12:25:01.476Z,26.90
2022-09-04T12:28:02.982Z,26.90
2022-09-04T12:30:41.245Z,27.00
2022-09-04T12:33:44.321Z,27.90
2022-09-04T12:36:52.111Z,28.40
2022-09-04T12:39:51.699Z,28.40
2022-09-04T12:42:27.196Z,28.40
2022-09-04T12:45:07.753Z,28.10
2022-09-04T12:47:47.960Z,27.90
2022-09-04T12:50:28.377Z,27.90
2022-09-04T12:53:25.927Z,28.00
2022-09-04T12:56:12.318Z,28.10
2022-09-04T12:59:15.993Z,27.50
2022-09-04T13:01:59.292Z,27.00
2022-09-04T13:04:34.937Z,26.70
2022-09-04T13:07:24.404Z,26.60
2022-09-04T13:10:03.641Z,26.60
2022-09-04T13:12:43.973Z,26.90
2022-09-04T13:15:28.733Z,26.60
2022-09-04T13:18:10.886Z,26.60
2022-09-04T13:20:50.386Z,27.10
2022-09-04T13:23:35.420Z,27.20
2022-09-04T13:26:21.110Z,27.00
2022-09-04T13:28:57.813Z,27.10
2022-09-04T13:31:40.486Z,27.30
2022-09-04T13:34:19.387Z,27.30
2022-09-04T13:37:04.513Z,27.10
2022-09-04T13:39:52.057Z,27.10
2022-09-04T13:43:01.219Z,27.30
2022-09-04T13:45:34.623Z,27.60
2022-09-04T13:48:07.804Z,27.90
2022-09-04T13:50:41.169Z,28.00
2022-09-04T13:53:16.647Z,27.70
2022-09-04T13:55:50.832Z,27.00
2022-09-04T13:58:20.997Z,27.00
2022-09-04T14:00:53.203Z,27.10
2022-09-04T14:03:35.648Z,26.50
2022-09-04T14:06:05.596Z,25.80
2022-09-04T14:08:34.612Z,25.50
2022-09-04T14:11:48.097Z,25.10
2022-09-04T14:14:37.643Z,24.80
2022-09-04T14:17:07.084Z,25.10
2022-09-04T14:19:48.445Z,25.10
2022-09-04T14:22:26.550Z,24.90
2022-09-04T14:25:06.792Z,24.40
2022-09-04T14:28:03.502Z,24.00
2022-09-04T14:30:38.043Z,23.80
2022-09-04T14:33:19.485Z,24.30
2022-09-04T14:35:59.938Z,24.50
2022-09-04T14:38:59.652Z,24.50
2022-09-04T14:41:39.909Z,24.20
2022-09-04T14:44:23.625Z,24.10
2022-09-04T14:47:02.231Z,23.90
2022-09-04T14:49:32.907Z,23.90
2022-09-04T14:52:11.013Z,23.90
2022-09-04T14:54:46.677Z,24.00
2022-09-04T14:57:22.915Z,24.40
2022-09-04T15:00:03.313Z,24.60
2022-09-04T15:02:38.198Z,25.00
2022-09-04T15:05:16.420Z,25.60
2022-09-04T15:08:00.342Z,25.30
2022-09-04T15:10:50.033Z,25.30
2022-09-04T15:13:52.132Z,25.20
2022-09-04T15:16:29.435Z,25.20
2022-09-04T15:19:05.171Z,25.30
2022-09-04T15:21:40.274Z,25.50
2022-09-04T15:24:18.292Z,25.40
2022-09-04T15:26:55.725Z,25.10
2022-09-04T15:29:28.753Z,25.00
2022-09-04T15:32:01.693Z,25.40
2022-09-04T15:34:32.248Z,25.70
2022-09-04T15:37:12.809Z,25.90
2022-09-04T15:39:50.600Z,25.80
2022-09-04T15:42:40.397Z,26.00
2022-09-04T15:45:17.760Z,25.60
2022-09-04T15:47:58.745Z,25.60
2022-09-04T15:50:30.509Z,25.80
2022-09-04T15:53:10.659Z,25.50
2022-09-04T15:55:44.480Z,25.00
2022-09-04T15:58:19.866Z,25.10
2022-09-04T16:01:16.704Z,25.00
2022-09-04T16:04:01.466Z,24.80
2022-09-04T16:06:32.888Z,25.00
2022-09-04T16:09:06.730Z,24.80
2022-09-04T16:11:41.604Z,24.50
2022-09-04T16:14:18.941Z,24.30
2022-09-04T16:16:51.166Z,24.20
2022-09-04T16:19:28.181Z,23.90
2022-09-04T16:22:07.980Z,23.40
2022-09-04T16:24:42.538Z,22.70
2022-09-04T16:27:17.084Z,22.30
2022-09-04T16:29:49.264Z,21.90
2022-09-04T16:32:21.660Z,21.60
2022-09-04T16:34:53.620Z,21.40
2022-09-04T16:37:28.380Z,21.20
2022-09-04T16:40:04.450Z,21.00
2022-09-04T16:42:42.363Z,20.80
2022-09-04T16:45:17.724Z,20.70
2022-09-04T16:47:51.206Z,20.60
2022-09-04T16:50:27.274Z,20.40
2022-09-04T16:53:14.306Z,20.30
2022-09-04T16:55:50.661Z,20.10
2022-09-04T16:58:35.186Z,20.00
2022-09-04T17:01:14.784Z,19.90
2022-09-04T17:04:13.281Z,19.80
2022-09-04T17:06:56.458Z,19.70
2022-09-04T17:09:32.129Z,19.60
2022-09-04T17:12:17.739Z,19.40
2022-09-04T17:14:54.369Z,19.30
2022-09-04T17:17:31.883Z,19.20
2022-09-04T17:20:12.247Z,19.10
2022-09-04T17:28:55.911Z,18.90
2022-09-04T17:29:12.100Z,18.80
2022-09-04T17:29:28.147Z,18.60
2022-09-04T17:31:53.851Z,18.40
2022-09-04T17:40:35.595Z,18.30
2022-09-04T17:40:49.126Z,18.10
2022-09-04T17:41:34.437Z,18.00
2022-09-04T17:43:32.936Z,17.80
2022-09-04T17:46:12.706Z,17.70
2022-09-04T17:48:44.838Z,17.50
2022-09-04T17:51:19.189Z,17.40
2022-09-04T17:53:51.971Z,17.20
2022-09-04T17:56:28.118Z,17.10
2022-09-04T17:59:05.380Z,17.00
2022-09-04T18:01:40.952Z,16.90
2022-09-04T18:04:24.508Z,16.70
2022-09-04T18:06:58.929Z,16.50
2022-09-04T18:09:33.230Z,16.40
2022-09-04T18:12:11.189Z,16.30
2022-09-04T18:15:01.019Z,16.20
2022-09-04T18:17:48.679Z,16.10
2022-09-04T18:20:29.487Z,16.00
2022-09-04T18:23:50.854Z,15.90
2022-09-04T18:26:33.984Z,15.90
2022-09-04T18:34:06.133Z,15.80
2022-09-04T18:37:21.953Z,15.70
2022-09-04T18:37:25.852Z,15.60
2022-09-04T18:38:37.596Z,15.50
2022-09-04T18:45:42.350Z,15.50
2022-09-04T18:50:30.393Z,15.20
2022-09-04T18:50:32.634Z,15.40
2022-09-04T18:50:45.369Z,15.10
2022-09-04T18:53:06.639Z,15.10
2022-09-04T18:55:45.835Z,15.10
2022-09-04T18:58:38.840Z,15.10
2022-09-04T19:01:16.620Z,15.00
2022-09-04T19:03:57.660Z,15.00
2022-09-04T19:06:38.710Z,14.90
2022-09-04T19:09:14.749Z,14.90
2022-09-04T19:11:48.918Z,14.80
2022-09-04T19:14:19.923Z,14.70
2022-09-04T19:16:51.300Z,14.70
2022-09-04T19:19:27.208Z,14.70
2022-09-04T19:22:09.608Z,14.60
2022-09-04T19:24:46.953Z,14.50
2022-09-04T19:27:28.201Z,14.50
2022-09-04T19:30:17.831Z,14.40
2022-09-04T19:33:04.457Z,14.40
2022-09-04T19:35:38.531Z,14.30
2022-09-04T19:44:16.667Z,14.30
2022-09-04T19:46:06.570Z,14.20
2022-09-04T19:46:11.591Z,14.10
2022-09-04T19:47:27.462Z,14.10
2022-09-04T19:53:30.287Z,14.00
2022-09-04T19:53:30.534Z,13.90
2022-09-04T19:55:47.489Z,13.90
2022-09-04T19:58:20.970Z,13.80
2022-09-04T20:00:55.117Z,13.80
2022-09-04T20:03:29.669Z,13.80
2022-09-04T20:06:21.051Z,13.70
2022-09-04T20:08:55.992Z,13.60
2022-09-04T20:11:34.778Z,13.70
2022-09-04T20:14:15.515Z,13.60
2022-09-04T20:16:53.257Z,13.60
2022-09-04T20:19:28.063Z,13.50
2022-09-04T20:22:03.681Z,13.50
2022-09-04T20:24:39.823Z,13.50
2022-09-04T20:27:16.014Z,13.40
2022-09-04T20:29:54.620Z,13.30
2022-09-04T20:32:28.876Z,13.30
2022-09-04T20:35:13.131Z,13.20
2022-09-04T20:37:46.151Z,13.10
2022-09-04T20:40:27.415Z,13.00
2022-09-04T20:43:10.901Z,12.90
2022-09-04T20:47:51.900Z,12.80
2022-09-04T20:52:53.856Z,12.80
2022-09-04T20:52:55.659Z,12.70
2022-09-04T20:54:51.007Z,12.70
2022-09-04T21:02:44.592Z,12.70
2022-09-04T21:03:06.344Z,12.70
2022-09-04T21:03:28.042Z,12.60
2022-09-04T21:06:14.103Z,12.60
2022-09-04T21:08:52.368Z,12.60
2022-09-04T21:11:40.979Z,12.60
2022-09-04T21:14:15.950Z,12.60
2022-09-04T21:17:34.559Z,12.60
2022-09-04T21:20:51.846Z,12.50
2022-09-04T21:24:03.852Z,12.40
2022-09-04T21:27:00.833Z,12.40
2022-09-04T21:29:59.426Z,12.50
2022-09-04T21:32:40.972Z,12.60
2022-09-04T21:35:16.825Z,12.50
2022-09-04T21:37:52.577Z,12.40
2022-09-04T21:40:50.256Z,12.40
2022-09-04T21:43:40.161Z,12.30
2022-09-04T21:46:29.047Z,12.30
2022-09-04T21:49:27.076Z,12.30
2022-09-04T21:52:20.126Z,12.30
2022-09-04T21:57:00.000Z,12.30
2022-09-04T22:02:36.085Z,12.30
2022-09-04T22:02:37.498Z,12.30
2022-09-04T22:04:18.208Z,12.20
2022-09-04T22:08:54.695Z,12.30
2022-09-04T22:13:31.306Z,12.40
2022-09-04T22:13:43.726Z,12.50
2022-09-04T22:16:34.416Z,12.60
2022-09-04T22:19:37.993Z,12.60
2022-09-04T22:22:24.423Z,12.70
2022-09-04T22:25:20.233Z,12.80
2022-09-04T22:28:26.245Z,12.90
2022-09-04T22:31:29.395Z,13.00
2022-09-04T22:34:19.801Z,13.00
2022-09-04T22:37:21.179Z,13.10
2022-09-04T22:40:15.799Z,13.20
2022-09-04T22:42:50.385Z,13.20
2022-09-04T22:45:51.002Z,13.30
2022-09-04T22:48:49.162Z,13.30
2022-09-04T22:51:50.277Z,13.40
2022-09-04T22:54:36.816Z,13.30
2022-09-04T22:57:09.368Z,13.30
2022-09-04T23:00:00.534Z,13.30
2022-09-04T23:03:12.361Z,13.30
2022-09-04T23:09:06.052Z,13.30
2022-09-04T23:13:53.094Z,13.30
2022-09-04T23:14:01.803Z,13.30
2022-09-04T23:15:51.955Z,13.30
2022-09-04T23:19:08.665Z,13.40
2022-09-04T23:26:52.674Z,13.30
2022-09-04T23:26:54.103Z,13.30
2022-09-04T23:27:52.501Z,13.30
2022-09-04T23:30:25.757Z,13.20
2022-09-04T23:33:39.918Z,13.20
2022-09-04T23:36:37.725Z,13.20
2022-09-04T23:39:40.110Z,13.10
2022-09-04T23:42:25.578Z,13.00
2022-09-04T23:45:23.477Z,12.80
2022-09-04T23:48:07.319Z,12.70
2022-09-04T23:50:48.699Z,12.70
2022-09-04T23:53:29.570Z,12.60
2022-09-04T23:56:17.897Z,12.60
2022-09-04T23:59:26.591Z,12.50
